Observations for AVIANO IT US-AFB, Italy (LIPA)

LIPA 200555Z 02004KT CAVOK 15/11 Q1027 RMK SKC VIS MIN 9999 WIND THR05 02003KT WIND THR23 03004KT A3034 BLU 
LIPA 200455Z 01004KT CAVOK 10/08 Q1027 RMK SKC VIS MIN 9999 WIND THR05 02004KT WIND THR23 10004KT A3034 BLU 
LIPA 200355Z 27002KT CAVOK 09/07 Q1027 RMK SKC VIS MIN 9999 WIND THR05 04001KT WIND THR23 28002KT A3034 BLU 
LIPA 191955Z 07002KT CAVOK 14/08 Q1027 RMK SKC VIS MIN 9999 WIND THR05 05001KT WIND THR23 00000KT A3034 BLU 
LIPA 191855Z 23002KT CAVOK 17/07 Q1027 RMK SKC VIS MIN 9999 WIND THR05 00000KT WIND THR23 00000KT A3033 BLU 
LIPA 191755Z 21007KT CAVOK 19/07 Q1027 RMK SKC VIS MIN 9999 WIND THR05 20007KT WIND THR23 23005KT A3033 BLU 
LIPA 191655Z 24007KT CAVOK 20/06 Q1027 RMK SKC VIS MIN 9999 WIND THR05 24007KT WIND THR23 26005KT A3034 BLU 
LIPA 191555Z 23005KT 9999 FEW090 21/06 Q1027 RMK FEW VIS MIN 9999 WIND THR05 23005KT WIND THR23 22006KT A3034 BLU   
LIPA 191455Z 21006KT 9999 FEW070 21/06 Q1027 RMK FEW VIS MIN 9999 WIND THR05 22006KT WIND THR23 20005KT A3034 BLU   
LIPA 191355Z 12004KT 9999 FEW070 21/07 Q1027 RMK FEW VIS MIN 9999 WIND THR05 11004KT WIND THR23 11003KT A3036 BLU   
LIPA 191255Z 23003KT 9999 FEW070 21/05 Q1028 RMK FEW VIS MIN 9999 WIND THR05 24003KT WIND THR23 23002KT A3038 BLU   
LIPA 191155Z 10006KT 9999 FEW080 21/05 Q1029 RMK FEW VIS MIN 9999 WIND THR05 10005KT WIND THR23 12006KT A3040 BLU   
LIPA 191055Z 11003KT 9999 FEW050 20/07 Q1029 RMK FEW VIS MIN 9999 WIND THR05 12003KT WIND THR23 11004KT A3041 BLU   
LIPA 190855Z 16004KT 9999 FEW050 19/07 Q1030 RMK FEW VIS MIN 9999 WIND THR05 18004KT WIND THR23 20004KT A3043 BLU   
LIPA 190755Z 13006KT 9999 FEW050 18/08 Q1030 RMK FEW VIS MIN 9999 WIND THR05 13005KT WIND THR23 12005KT A3043 BLU   
LIPA 190655Z 03002KT 9999 FEW050 17/08 Q1029 RMK FEW VIS MIN 9999 WIND THR05 02002KT WIND THR23 03003KT A3041 BLU   
LIPA 190555Z 31003KT 9999 FEW050 14/11 Q1029 RMK FEW VIS MIN 9999 WIND THR05 30003KT WIND THR23 31004KT A3040 BLU